sensor_id;sensor_type;location;lat;lon;timestamp;pressure;altitude;pressure_sealevel;temperature;humidity
5550;BME280;2798;42.716;23.256;2024-03-08T00:02:11;94747.59;;;8.64;74.10
5550;BME280;2798;42.716;23.256;2024-03-08T00:04:38;94756.75;;;8.68;74.03
5550;BME280;2798;42.716;23.256;2024-03-08T00:07:03;94747.41;;;8.67;74.78
5550;BME280;2798;42.716;23.256;2024-03-08T00:09:30;94747.31;;;8.69;75.03
5550;BME280;2798;42.716;23.256;2024-03-08T00:11:56;94743.81;;;8.70;74.86
5550;BME280;2798;42.716;23.256;2024-03-08T00:14:21;94747.09;;;8.72;74.71
5550;BME280;2798;42.716;23.256;2024-03-08T00:16:47;94745.25;;;8.74;73.97
5550;BME280;2798;42.716;23.256;2024-03-08T00:19:12;94753.88;;;8.73;73.66
5550;BME280;2798;42.716;23.256;2024-03-08T00:21:37;94745.25;;;8.74;73.57
5550;BME280;2798;42.716;23.256;2024-03-08T00:24:02;94745.97;;;8.76;73.56
5550;BME280;2798;42.716;23.256;2024-03-08T00:26:28;94747.63;;;8.77;73.45
5550;BME280;2798;42.716;23.256;2024-03-08T00:28:54;94746.06;;;8.74;73.33
5550;BME280;2798;42.716;23.256;2024-03-08T00:31:20;94745.03;;;8.77;73.27
5550;BME280;2798;42.716;23.256;2024-03-08T00:33:45;94754.72;;;8.73;73.89
5550;BME280;2798;42.716;23.256;2024-03-08T00:36:10;94750.56;;;8.71;74.21
5550;BME280;2798;42.716;23.256;2024-03-08T00:38:36;94738.69;;;8.70;74.08
5550;BME280;2798;42.716;23.256;2024-03-08T00:41:01;94735.28;;;8.69;73.76
5550;BME280;2798;42.716;23.256;2024-03-08T00:43:27;94758.56;;;8.66;74.80
5550;BME280;2798;42.716;23.256;2024-03-08T00:45:52;94739.72;;;8.67;74.42
5550;BME280;2798;42.716;23.256;2024-03-08T00:48:17;94741.44;;;8.67;74.80
5550;BME280;2798;42.716;23.256;2024-03-08T00:50:43;94738.06;;;8.66;74.60
5550;BME280;2798;42.716;23.256;2024-03-08T00:53:10;94733.94;;;8.63;75.27
5550;BME280;2798;42.716;23.256;2024-03-08T00:55:36;94732.03;;;8.67;74.30
5550;BME280;2798;42.716;23.256;2024-03-08T00:58:01;94733.94;;;8.63;75.58
5550;BME280;2798;42.716;23.256;2024-03-08T01:00:26;94727.19;;;8.62;75.25
5550;BME280;2798;42.716;23.256;2024-03-08T01:02:52;94726.56;;;8.59;74.84
5550;BME280;2798;42.716;23.256;2024-03-08T01:05:18;94724.19;;;8.56;74.78
5550;BME280;2798;42.716;23.256;2024-03-08T01:07:44;94723.34;;;8.55;74.63
5550;BME280;2798;42.716;23.256;2024-03-08T01:10:11;94719.22;;;8.52;74.89
5550;BME280;2798;42.716;23.256;2024-03-08T01:12:37;94716.97;;;8.48;75.01
5550;BME280;2798;42.716;23.256;2024-03-08T01:15:02;94713.56;;;8.47;75.51
5550;BME280;2798;42.716;23.256;2024-03-08T01:17:28;94712.53;;;8.50;74.83
5550;BME280;2798;42.716;23.256;2024-03-08T01:19:53;94709.47;;;8.45;75.17
5550;BME280;2798;42.716;23.256;2024-03-08T01:22:19;94711.31;;;8.43;74.61
5550;BME280;2798;42.716;23.256;2024-03-08T01:24:44;94712.19;;;8.41;75.36
5550;BME280;2798;42.716;23.256;2024-03-08T01:27:09;94705.75;;;8.36;75.16
5550;BME280;2798;42.716;23.256;2024-03-08T01:29:35;94701.44;;;8.36;75.26
5550;BME280;2798;42.716;23.256;2024-03-08T01:32:00;94709.03;;;8.38;74.43
5550;BME280;2798;42.716;23.256;2024-03-08T01:34:26;94703.06;;;8.37;74.94
5550;BME280;2798;42.716;23.256;2024-03-08T01:36:53;94701.53;;;8.35;74.59
5550;BME280;2798;42.716;23.256;2024-03-08T01:39:20;94694.66;;;8.35;74.97
5550;BME280;2798;42.716;23.256;2024-03-08T01:41:47;94698.13;;;8.34;73.94
5550;BME280;2798;42.716;23.256;2024-03-08T01:44:12;94703.38;;;8.33;73.65
5550;BME280;2798;42.716;23.256;2024-03-08T01:46:40;94699.19;;;8.32;74.10
5550;BME280;2798;42.716;23.256;2024-03-08T01:49:06;94693.13;;;8.33;75.02
5550;BME280;2798;42.716;23.256;2024-03-08T01:51:31;94692.91;;;8.36;74.28
5550;BME280;2798;42.716;23.256;2024-03-08T01:53:57;94693.94;;;8.33;75.04
5550;BME280;2798;42.716;23.256;2024-03-08T01:56:23;94691.38;;;8.33;75.37
5550;BME280;2798;42.716;23.256;2024-03-08T01:58:50;94693.13;;;8.33;75.10
5550;BME280;2798;42.716;23.256;2024-03-08T02:01:16;94684.38;;;8.35;74.88
5550;BME280;2798;42.716;23.256;2024-03-08T02:03:41;94681.94;;;8.34;74.67
5550;BME280;2798;42.716;23.256;2024-03-08T02:06:08;94686.25;;;8.33;74.65
5550;BME280;2798;42.716;23.256;2024-03-08T02:08:35;94680.94;;;8.36;74.13
5550;BME280;2798;42.716;23.256;2024-03-08T02:11:00;94685.13;;;8.37;73.93
5550;BME280;2798;42.716;23.256;2024-03-08T02:13:27;94684.19;;;8.38;74.54
5550;BME280;2798;42.716;23.256;2024-03-08T02:15:53;94690.88;;;8.41;74.91
5550;BME280;2798;42.716;23.256;2024-03-08T02:18:19;94683.28;;;8.39;74.09
5550;BME280;2798;42.716;23.256;2024-03-08T02:20:49;94684.09;;;8.40;74.47
5550;BME280;2798;42.716;23.256;2024-03-08T02:23:14;94681.63;;;8.38;74.09
5550;BME280;2798;42.716;23.256;2024-03-08T02:25:40;94707.16;;;8.40;74.58
5550;BME280;2798;42.716;23.256;2024-03-08T02:28:06;94691.19;;;8.36;73.50
5550;BME280;2798;42.716;23.256;2024-03-08T02:30:33;94688.81;;;8.33;73.55
5550;BME280;2798;42.716;23.256;2024-03-08T02:32:58;94689.53;;;8.35;74.17
5550;BME280;2798;42.716;23.256;2024-03-08T02:35:24;94689.72;;;8.32;73.51
5550;BME280;2798;42.716;23.256;2024-03-08T02:37:49;94697.31;;;8.34;73.59
5550;BME280;2798;42.716;23.256;2024-03-08T02:40:14;94695.78;;;8.31;73.17
5550;BME280;2798;42.716;23.256;2024-03-08T02:42:39;94696.59;;;8.32;73.39
5550;BME280;2798;42.716;23.256;2024-03-08T02:45:05;94698.34;;;8.31;74.30
5550;BME280;2798;42.716;23.256;2024-03-08T02:47:31;94699.88;;;8.34;73.90
5550;BME280;2798;42.716;23.256;2024-03-08T02:49:56;94694.53;;;8.37;73.69
5550;BME280;2798;42.716;23.256;2024-03-08T02:52:21;94700.41;;;8.39;73.83
5550;BME280;2798;42.716;23.256;2024-03-08T02:54:47;94691.78;;;8.40;73.33
5550;BME280;2798;42.716;23.256;2024-03-08T02:57:12;94697.84;;;8.39;72.87
5550;BME280;2798;42.716;23.256;2024-03-08T02:59:39;94691.88;;;8.38;73.31
5550;BME280;2798;42.716;23.256;2024-03-08T03:02:05;94693.44;;;8.41;72.83
5550;BME280;2798;42.716;23.256;2024-03-08T03:04:31;94699.47;;;8.40;72.82
5550;BME280;2798;42.716;23.256;2024-03-08T03:06:57;94698.69;;;8.39;73.36
5550;BME280;2798;42.716;23.256;2024-03-08T03:09:23;94707.16;;;8.40;72.93
5550;BME280;2798;42.716;23.256;2024-03-08T03:11:52;94703.72;;;8.41;72.53
5550;BME280;2798;42.716;23.256;2024-03-08T03:14:17;94701.84;;;8.43;72.68
5550;BME280;2798;42.716;23.256;2024-03-08T03:16:44;94706.97;;;8.43;73.29
5550;BME280;2798;42.716;23.256;2024-03-08T03:19:11;94709.63;;;8.41;72.70
5550;BME280;2798;42.716;23.256;2024-03-08T03:21:36;94638.59;;;7.75;72.45
5550;BME280;2798;42.716;23.256;2024-03-08T03:24:03;94713.88;;;8.43;72.97
5550;BME280;2798;42.716;23.256;2024-03-08T03:26:29;94716.44;;;8.43;72.84
5550;BME280;2798;42.716;23.256;2024-03-08T03:28:56;94719.78;;;8.43;73.31
5550;BME280;2798;42.716;23.256;2024-03-08T03:31:22;94719.00;;;8.43;72.87
5550;BME280;2798;42.716;23.256;2024-03-08T03:33:49;94729.97;;;8.45;72.70
5550;BME280;2798;42.716;23.256;2024-03-08T03:36:16;94721.34;;;8.46;71.70
5550;BME280;2798;42.716;23.256;2024-03-08T03:38:42;94724.84;;;8.45;71.62
5550;BME280;2798;42.716;23.256;2024-03-08T03:41:08;94724.22;;;8.41;72.20
5550;BME280;2798;42.716;23.256;2024-03-08T03:43:35;94729.56;;;8.38;71.50
5550;BME280;2798;42.716;23.256;2024-03-08T03:46:00;94733.13;;;8.35;71.25
5550;BME280;2798;42.716;23.256;2024-03-08T03:48:25;94737.63;;;8.32;71.15
5550;BME280;2798;42.716;23.256;2024-03-08T03:50:51;94729.94;;;8.32;70.34
5550;BME280;2798;42.716;23.256;2024-03-08T03:53:16;94741.94;;;8.31;68.75
5550;BME280;2798;42.716;23.256;2024-03-08T03:55:41;94739.38;;;8.31;68.97
5550;BME280;2798;42.716;23.256;2024-03-08T03:58:08;94744.41;;;8.33;67.76
5550;BME280;2798;42.716;23.256;2024-03-08T04:00:34;94740.19;;;8.32;66.88
5550;BME280;2798;42.716;23.256;2024-03-08T04:03:00;94735.38;;;8.27;67.66
5550;BME280;2798;42.716;23.256;2024-03-08T04:05:26;94747.34;;;8.26;66.85
5550;BME280;2798;42.716;23.256;2024-03-08T04:07:51;94743.84;;;8.27;66.95
5550;BME280;2798;42.716;23.256;2024-03-08T04:10:16;94751.66;;;8.26;66.61
5550;BME280;2798;42.716;23.256;2024-03-08T04:12:41;94750.81;;;8.25;66.07
5550;BME280;2798;42.716;23.256;2024-03-08T04:15:07;94752.88;;;8.20;66.50
5550;BME280;2798;42.716;23.256;2024-03-08T04:17:35;94757.44;;;8.15;67.77
5550;BME280;2798;42.716;23.256;2024-03-08T04:20:02;94756.63;;;8.14;67.44
5550;BME280;2798;42.716;23.256;2024-03-08T04:22:34;94764.41;;;8.13;68.79
5550;BME280;2798;42.716;23.256;2024-03-08T04:25:00;94757.66;;;8.12;67.88
5550;BME280;2798;42.716;23.256;2024-03-08T04:27:25;94764.50;;;8.11;68.39
5550;BME280;2798;42.716;23.256;2024-03-08T04:29:50;94767.34;;;8.07;68.45
5550;BME280;2798;42.716;23.256;2024-03-08T04:32:16;94769.19;;;8.04;69.29
5550;BME280;2798;42.716;23.256;2024-03-08T04:34:42;94774.41;;;8.03;69.17
5550;BME280;2798;42.716;23.256;2024-03-08T04:37:07;94779.53;;;8.03;68.72
5550;BME280;2798;42.716;23.256;2024-03-08T04:39:35;94781.47;;;7.99;69.24
5550;BME280;2798;42.716;23.256;2024-03-08T04:42:02;94786.22;;;8.06;70.10
5550;BME280;2798;42.716;23.256;2024-03-08T04:44:31;94790.53;;;8.05;69.92
5550;BME280;2798;42.716;23.256;2024-03-08T04:46:58;94784.84;;;8.00;69.62
5550;BME280;2798;42.716;23.256;2024-03-08T04:49:24;94784.13;;;7.98;68.94
5550;BME280;2798;42.716;23.256;2024-03-08T04:51:49;94780.56;;;8.00;68.98
5550;BME280;2798;42.716;23.256;2024-03-08T04:54:14;94783.13;;;8.00;69.40
5550;BME280;2798;42.716;23.256;2024-03-08T04:56:40;94789.25;;;7.98;69.63
5550;BME280;2798;42.716;23.256;2024-03-08T04:59:05;94791.91;;;7.96;69.96
5550;BME280;2798;42.716;23.256;2024-03-08T05:01:33;94797.22;;;7.93;70.56
5550;BME280;2798;42.716;23.256;2024-03-08T05:03:58;94787.78;;;7.94;69.79
5550;BME280;2798;42.716;23.256;2024-03-08T05:06:23;94801.34;;;7.96;70.11
5550;BME280;2798;42.716;23.256;2024-03-08T05:08:49;94799.59;;;7.96;70.25
5550;BME280;2798;42.716;23.256;2024-03-08T05:11:14;94800.41;;;7.97;70.44
5550;BME280;2798;42.716;23.256;2024-03-08T05:13:39;94807.41;;;7.95;69.46
5550;BME280;2798;42.716;23.256;2024-03-08T05:16:05;94804.81;;;7.95;70.43
5550;BME280;2798;42.716;23.256;2024-03-08T05:18:32;94800.69;;;7.92;70.80
5550;BME280;2798;42.716;23.256;2024-03-08T05:20:58;94813.59;;;7.90;70.38
5550;BME280;2798;42.716;23.256;2024-03-08T05:23:23;94813.59;;;7.90;70.44
5550;BME280;2798;42.716;23.256;2024-03-08T05:25:49;94823.56;;;7.95;70.38
5550;BME280;2798;42.716;23.256;2024-03-08T05:28:15;94821.00;;;7.95;70.62
5550;BME280;2798;42.716;23.256;2024-03-08T05:30:40;94830.47;;;7.95;70.14
5550;BME280;2798;42.716;23.256;2024-03-08T05:33:06;94828.00;;;7.93;70.29
5550;BME280;2798;42.716;23.256;2024-03-08T05:35:35;94835.69;;;7.93;71.22
5550;BME280;2798;42.716;23.256;2024-03-08T05:38:01;94833.19;;;7.91;71.59
5550;BME280;2798;42.716;23.256;2024-03-08T05:40:26;94829.81;;;7.91;71.82
5550;BME280;2798;42.716;23.256;2024-03-08T05:42:52;94838.25;;;7.93;71.65
5550;BME280;2798;42.716;23.256;2024-03-08T05:45:17;94844.06;;;7.95;71.07
5550;BME280;2798;42.716;23.256;2024-03-08T05:47:43;94849.84;;;7.99;71.32
5550;BME280;2798;42.716;23.256;2024-03-08T05:50:08;94858.38;;;7.99;71.45
5550;BME280;2798;42.716;23.256;2024-03-08T05:52:36;94858.47;;;7.98;71.57
5550;BME280;2798;42.716;23.256;2024-03-08T05:55:02;94863.22;;;8.04;72.96
5550;BME280;2798;42.716;23.256;2024-03-08T05:57:28;94863.22;;;8.04;72.65
5550;BME280;2798;42.716;23.256;2024-03-08T05:59:53;94866.34;;;7.95;70.91
5550;BME280;2798;42.716;23.256;2024-03-08T06:02:18;94866.44;;;7.93;71.88
5550;BME280;2798;42.716;23.256;2024-03-08T06:04:45;94868.34;;;7.89;72.01
5550;BME280;2798;42.716;23.256;2024-03-08T06:07:11;94871.00;;;7.88;72.76
5550;BME280;2798;42.716;23.256;2024-03-08T06:09:37;94870.25;;;7.86;73.32
5550;BME280;2798;42.716;23.256;2024-03-08T06:12:03;94869.31;;;7.87;73.71
5550;BME280;2798;42.716;23.256;2024-03-08T06:14:29;94878.03;;;7.84;74.19
5550;BME280;2798;42.716;23.256;2024-03-08T06:16:55;94883.34;;;7.81;74.43
5550;BME280;2798;42.716;23.256;2024-03-08T06:19:20;94876.50;;;7.82;74.28
5550;BME280;2798;42.716;23.256;2024-03-08T06:21:45;94884.16;;;7.82;75.08
5550;BME280;2798;42.716;23.256;2024-03-08T06:24:10;94881.69;;;7.80;75.05
5550;BME280;2798;42.716;23.256;2024-03-08T06:26:36;94890.19;;;7.81;75.04
5550;BME280;2798;42.716;23.256;2024-03-08T06:29:02;94887.63;;;7.81;75.33
5550;BME280;2798;42.716;23.256;2024-03-08T06:31:31;94892.47;;;7.85;74.76
5550;BME280;2798;42.716;23.256;2024-03-08T06:33:56;94896.72;;;7.86;74.70
5550;BME280;2798;42.716;23.256;2024-03-08T06:36:22;94889.91;;;7.85;74.88
5550;BME280;2798;42.716;23.256;2024-03-08T06:38:51;94890.94;;;7.83;74.46
5550;BME280;2798;42.716;23.256;2024-03-08T06:41:16;94888.28;;;7.84;74.62
5550;BME280;2798;42.716;23.256;2024-03-08T06:43:42;94891.69;;;7.85;74.61
5550;BME280;2798;42.716;23.256;2024-03-08T06:46:08;94894.88;;;7.88;73.72
5550;BME280;2798;42.716;23.256;2024-03-08T06:48:33;94897.59;;;7.85;73.97
5550;BME280;2798;42.716;23.256;2024-03-08T06:51:00;94901.09;;;7.84;74.38
5550;BME280;2798;42.716;23.256;2024-03-08T06:53:25;94895.78;;;7.87;74.13
5550;BME280;2798;42.716;23.256;2024-03-08T06:55:50;94894.63;;;7.93;74.44
5550;BME280;2798;42.716;23.256;2024-03-08T06:58:16;94899.47;;;7.98;75.07
5550;BME280;2798;42.716;23.256;2024-03-08T07:00:41;94906.31;;;7.97;74.42
5550;BME280;2798;42.716;23.256;2024-03-08T07:03:09;94903.56;;;8.00;73.98
5550;BME280;2798;42.716;23.256;2024-03-08T07:05:37;94920.41;;;8.04;74.22
5550;BME280;2798;42.716;23.256;2024-03-08T07:08:03;94908.44;;;8.05;73.93
5550;BME280;2798;42.716;23.256;2024-03-08T07:10:28;94905.50;;;8.11;73.65
5550;BME280;2798;42.716;23.256;2024-03-08T07:12:54;94901.66;;;8.19;73.02
5550;BME280;2798;42.716;23.256;2024-03-08T07:15:19;94870.25;;;8.00;72.90
5550;BME280;2798;42.716;23.256;2024-03-08T07:17:45;94909.44;;;8.32;72.00
5550;BME280;2798;42.716;23.256;2024-03-08T07:20:10;94916.03;;;8.36;71.94
5550;BME280;2798;42.716;23.256;2024-03-08T07:22:38;94915.00;;;8.38;72.09
5550;BME280;2798;42.716;23.256;2024-03-08T07:25:06;94911.53;;;8.39;71.46
5550;BME280;2798;42.716;23.256;2024-03-08T07:27:47;94911.06;;;8.47;72.19
5550;BME280;2798;42.716;23.256;2024-03-08T07:30:13;94914.28;;;8.51;71.04
5550;BME280;2798;42.716;23.256;2024-03-08T07:32:58;94921.78;;;8.54;71.44
5550;BME280;2798;42.716;23.256;2024-03-08T07:35:23;94920.78;;;8.57;71.87
5550;BME280;2798;42.716;23.256;2024-03-08T07:37:51;94917.13;;;8.61;71.65
5550;BME280;2798;42.716;23.256;2024-03-08T07:40:16;94924.63;;;8.64;71.35
5550;BME280;2798;42.716;23.256;2024-03-08T07:42:42;94921.03;;;8.67;71.19
5550;BME280;2798;42.716;23.256;2024-03-08T07:45:08;94924.25;;;8.70;71.83
5550;BME280;2798;42.716;23.256;2024-03-08T07:47:34;94922.09;;;8.77;71.71
5550;BME280;2798;42.716;23.256;2024-03-08T07:50:01;94922.66;;;8.82;70.80
5550;BME280;2798;42.716;23.256;2024-03-08T07:52:27;94924.84;;;8.88;70.24
5550;BME280;2798;42.716;23.256;2024-03-08T07:54:52;94920.88;;;8.97;69.84
5550;BME280;2798;42.716;23.256;2024-03-08T07:57:18;94917.09;;;9.03;70.12
5550;BME280;2798;42.716;23.256;2024-03-08T07:59:44;94920.94;;;9.10;69.41
5550;BME280;2798;42.716;23.256;2024-03-08T08:02:09;94922.16;;;9.18;69.79
5550;BME280;2798;42.716;23.256;2024-03-08T08:04:35;94918.22;;;9.26;69.39
5550;BME280;2798;42.716;23.256;2024-03-08T08:07:00;94914.09;;;9.37;69.26
5550;BME280;2798;42.716;23.256;2024-03-08T08:09:26;94925.44;;;9.47;68.14
5550;BME280;2798;42.716;23.256;2024-03-08T08:11:59;94913.84;;;9.55;67.64
5550;BME280;2798;42.716;23.256;2024-03-08T08:14:24;94920.13;;;9.63;66.50
5550;BME280;2798;42.716;23.256;2024-03-08T08:16:50;94919.72;;;9.70;66.90
5550;BME280;2798;42.716;23.256;2024-03-08T08:19:17;94919.22;;;9.77;66.78
5550;BME280;2798;42.716;23.256;2024-03-08T08:21:43;94909.16;;;9.87;66.99
5550;BME280;2798;42.716;23.256;2024-03-08T08:24:08;94915.31;;;9.98;67.00
5550;BME280;2798;42.716;23.256;2024-03-08T08:26:33;94913.88;;;10.07;65.46
5550;BME280;2798;42.716;23.256;2024-03-08T08:28:59;94917.66;;;10.14;65.23
5550;BME280;2798;42.716;23.256;2024-03-08T08:31:24;94920.53;;;10.22;64.73
5550;BME280;2798;42.716;23.256;2024-03-08T08:33:50;94920.94;;;10.29;63.44
5550;BME280;2798;42.716;23.256;2024-03-08T08:36:15;94924.16;;;10.33;63.35
5550;BME280;2798;42.716;23.256;2024-03-08T08:38:40;94926.19;;;10.41;63.38
5550;BME280;2798;42.716;23.256;2024-03-08T08:41:09;94917.97;;;10.48;62.94
5550;BME280;2798;42.716;23.256;2024-03-08T08:43:34;94920.84;;;10.57;63.45
5550;BME280;2798;42.716;23.256;2024-03-08T08:46:00;94911.75;;;10.64;63.21
5550;BME280;2798;42.716;23.256;2024-03-08T08:48:26;94909.56;;;10.71;62.79
5550;BME280;2798;42.716;23.256;2024-03-08T08:50:53;94905.56;;;10.80;62.53
5550;BME280;2798;42.716;23.256;2024-03-08T08:53:18;94915.63;;;10.83;62.16
5550;BME280;2798;42.716;23.256;2024-03-08T08:55:43;94918.72;;;10.88;60.38
5550;BME280;2798;42.716;23.256;2024-03-08T08:58:10;94917.66;;;10.91;60.29
5550;BME280;2798;42.716;23.256;2024-03-08T09:00:36;94912.50;;;10.91;60.36
5550;BME280;2798;42.716;23.256;2024-03-08T09:03:01;94910.66;;;10.93;60.65
5550;BME280;2798;42.716;23.256;2024-03-08T09:05:27;94912.19;;;10.95;60.52
5550;BME280;2798;42.716;23.256;2024-03-08T09:07:52;94914.41;;;11.00;60.40
5550;BME280;2798;42.716;23.256;2024-03-08T09:10:18;94908.25;;;11.03;60.56
5550;BME280;2798;42.716;23.256;2024-03-08T09:12:43;94909.56;;;11.08;59.97
5550;BME280;2798;42.716;23.256;2024-03-08T09:15:09;94902.78;;;11.07;59.65
5550;BME280;2798;42.716;23.256;2024-03-08T09:17:36;94862.59;;;10.80;59.78
5550;BME280;2798;42.716;23.256;2024-03-08T09:20:01;94910.50;;;11.07;59.13
5550;BME280;2798;42.716;23.256;2024-03-08T09:22:29;94905.69;;;11.03;58.29
5550;BME280;2798;42.716;23.256;2024-03-08T09:24:54;94906.09;;;10.96;58.96
5550;BME280;2798;42.716;23.256;2024-03-08T09:27:20;94897.78;;;10.93;58.93
5550;BME280;2798;42.716;23.256;2024-03-08T09:29:45;94903.72;;;10.93;58.90
5550;BME280;2798;42.716;23.256;2024-03-08T09:32:10;94907.84;;;10.96;59.10
5550;BME280;2798;42.716;23.256;2024-03-08T09:34:37;94904.94;;;11.00;59.74
5550;BME280;2798;42.716;23.256;2024-03-08T09:37:02;94907.91;;;11.07;60.11
5550;BME280;2798;42.716;23.256;2024-03-08T09:39:29;94909.81;;;11.17;59.05
5550;BME280;2798;42.716;23.256;2024-03-08T09:41:54;94906.81;;;11.23;58.07
5550;BME280;2798;42.716;23.256;2024-03-08T09:44:20;94907.41;;;11.27;57.95
5550;BME280;2798;42.716;23.256;2024-03-08T09:46:46;94906.13;;;11.32;57.43
5550;BME280;2798;42.716;23.256;2024-03-08T09:49:16;94906.84;;;11.34;57.48
5550;BME280;2798;42.716;23.256;2024-03-08T09:51:41;94903.34;;;11.35;57.82
5550;BME280;2798;42.716;23.256;2024-03-08T09:54:07;94907.22;;;11.41;57.30
5550;BME280;2798;42.716;23.256;2024-03-08T09:56:33;94917.53;;;11.41;56.34
5550;BME280;2798;42.716;23.256;2024-03-08T09:58:59;94910.63;;;11.42;56.57
5550;BME280;2798;42.716;23.256;2024-03-08T10:01:37;94912.50;;;11.40;56.47
5550;BME280;2798;42.716;23.256;2024-03-08T10:04:04;94911.91;;;11.36;56.49
5550;BME280;2798;42.716;23.256;2024-03-08T10:06:29;94910.94;;;11.37;56.88
5550;BME280;2798;42.716;23.256;2024-03-08T10:08:54;94912.50;;;11.40;56.22
5550;BME280;2798;42.716;23.256;2024-03-08T10:11:20;94911.91;;;11.36;56.79
5550;BME280;2798;42.716;23.256;2024-03-08T10:13:47;94911.06;;;11.35;57.03
5550;BME280;2798;42.716;23.256;2024-03-08T10:16:12;94903.81;;;11.41;56.52
5550;BME280;2798;42.716;23.256;2024-03-08T10:18:38;94904.06;;;11.37;56.45
5550;BME280;2798;42.716;23.256;2024-03-08T10:21:06;94908.38;;;11.37;56.37
5550;BME280;2798;42.716;23.256;2024-03-08T10:23:33;94907.56;;;11.36;56.37
5550;BME280;2798;42.716;23.256;2024-03-08T10:26:09;94903.44;;;11.34;56.38
5550;BME280;2798;42.716;23.256;2024-03-08T10:28:34;94900.88;;;11.34;56.46
5550;BME280;2798;42.716;23.256;2024-03-08T10:30:59;94904.28;;;11.34;56.16
5550;BME280;2798;42.716;23.256;2024-03-08T10:33:25;94907.75;;;11.33;55.97
5550;BME280;2798;42.716;23.256;2024-03-08T10:35:50;94906.13;;;11.32;55.24
5550;BME280;2798;42.716;23.256;2024-03-08T10:38:16;94897.47;;;11.33;55.31
5550;BME280;2798;42.716;23.256;2024-03-08T10:40:45;94900.97;;;11.32;55.12
5550;BME280;2798;42.716;23.256;2024-03-08T10:43:12;94893.13;;;11.34;54.75
5550;BME280;2798;42.716;23.256;2024-03-08T10:45:41;94907.19;;;11.30;54.90
5550;BME280;2798;42.716;23.256;2024-03-08T10:50:35;94889.97;;;11.30;55.28
5550;BME280;2798;42.716;23.256;2024-03-08T10:53:00;94889.16;;;11.30;55.72
5550;BME280;2798;42.716;23.256;2024-03-08T10:55:26;94888.22;;;11.31;55.93
5550;BME280;2798;42.716;23.256;2024-03-08T10:57:53;94887.28;;;11.32;56.11
5550;BME280;2798;42.716;23.256;2024-03-08T11:00:19;94881.69;;;11.38;55.41
5550;BME280;2798;42.716;23.256;2024-03-08T11:02:51;94876.78;;;11.46;54.49
5550;BME280;2798;42.716;23.256;2024-03-08T11:05:31;94877.50;;;11.48;54.76
5550;BME280;2798;42.716;23.256;2024-03-08T11:08:00;94877.59;;;11.47;54.69
5550;BME280;2798;42.716;23.256;2024-03-08T11:10:25;94872.56;;;11.45;55.12
5550;BME280;2798;42.716;23.256;2024-03-08T11:12:51;94863.44;;;11.41;55.03
5550;BME280;2798;42.716;23.256;2024-03-08T11:15:17;94869.16;;;11.45;55.01
5550;BME280;2798;42.716;23.256;2024-03-08T11:17:48;94865.09;;;11.54;55.44
5550;BME280;2798;42.716;23.256;2024-03-08T11:20:14;94855.84;;;11.62;54.94
5550;BME280;2798;42.716;23.256;2024-03-08T11:28:21;94846.63;;;12.06;53.59
5550;BME280;2798;42.716;23.256;2024-03-08T11:33:28;94841.22;;;12.43;53.40
5550;BME280;2798;42.716;23.256;2024-03-08T11:38:31;94840.44;;;12.76;53.21
5550;BME280;2798;42.716;23.256;2024-03-08T11:40:57;94837.84;;;12.87;50.93
5550;BME280;2798;42.716;23.256;2024-03-08T11:43:22;94836.53;;;12.93;49.67
5550;BME280;2798;42.716;23.256;2024-03-08T11:45:48;94841.44;;;12.96;49.06
5550;BME280;2798;42.716;23.256;2024-03-08T11:48:14;94837.22;;;12.95;48.88
5550;BME280;2798;42.716;23.256;2024-03-08T11:50:39;94832.88;;;12.95;49.37
5550;BME280;2798;42.716;23.256;2024-03-08T11:53:04;94829.59;;;12.93;48.72
5550;BME280;2798;42.716;23.256;2024-03-08T11:55:31;94831.03;;;12.86;48.36
5550;BME280;2798;42.716;23.256;2024-03-08T11:58:03;94831.91;;;12.75;48.86
5550;BME280;2798;42.716;23.256;2024-03-08T12:00:29;94824.19;;;12.64;49.46
5550;BME280;2798;42.716;23.256;2024-03-08T12:03:03;94824.56;;;12.47;49.61
5550;BME280;2798;42.716;23.256;2024-03-08T12:05:29;94822.47;;;12.41;49.76
5550;BME280;2798;42.716;23.256;2024-03-08T12:07:59;94819.06;;;12.29;49.56
5550;BME280;2798;42.716;23.256;2024-03-08T12:10:24;94823.53;;;12.27;49.74
5550;BME280;2798;42.716;23.256;2024-03-08T12:12:53;94825.88;;;12.30;50.05
5550;BME280;2798;42.716;23.256;2024-03-08T12:15:19;94822.13;;;12.34;50.71
5550;BME280;2798;42.716;23.256;2024-03-08T12:17:46;94819.06;;;12.41;50.01
5550;BME280;2798;42.716;23.256;2024-03-08T12:20:16;94827.03;;;12.49;49.93
5550;BME280;2798;42.716;23.256;2024-03-08T12:22:43;94824.44;;;12.60;49.32
5550;BME280;2798;42.716;23.256;2024-03-08T12:25:08;94818.66;;;12.68;49.72
5550;BME280;2798;42.716;23.256;2024-03-08T12:27:35;94828.00;;;12.81;49.19
5550;BME280;2798;42.716;23.256;2024-03-08T12:30:23;94822.22;;;12.89;49.77
5550;BME280;2798;42.716;23.256;2024-03-08T12:32:48;94810.34;;;12.97;48.45
5550;BME280;2798;42.716;23.256;2024-03-08T12:35:14;94813.84;;;12.96;48.21
5550;BME280;2798;42.716;23.256;2024-03-08T12:37:39;94810.81;;;12.91;49.08
5550;BME280;2798;42.716;23.256;2024-03-08T12:40:07;94808.91;;;12.93;49.26
5550;BME280;2798;42.716;23.256;2024-03-08T12:42:33;94806.78;;;12.98;49.29
5550;BME280;2798;42.716;23.256;2024-03-08T12:44:59;94814.28;;;13.02;49.08
5550;BME280;2798;42.716;23.256;2024-03-08T12:47:24;94807.13;;;13.05;48.61
5550;BME280;2798;42.716;23.256;2024-03-08T12:49:50;94792.19;;;13.09;48.60
5550;BME280;2798;42.716;23.256;2024-03-08T12:52:15;94803.06;;;13.13;48.46
5550;BME280;2798;42.716;23.256;2024-03-08T12:54:43;94807.06;;;13.17;48.64
5550;BME280;2798;42.716;23.256;2024-03-08T12:57:08;94798.75;;;13.13;47.60
5550;BME280;2798;42.716;23.256;2024-03-08T12:59:36;94803.06;;;13.13;47.61
5550;BME280;2798;42.716;23.256;2024-03-08T13:02:01;94794.78;;;13.09;47.57
5550;BME280;2798;42.716;23.256;2024-03-08T13:04:27;94796.66;;;13.07;47.60
5550;BME280;2798;42.716;23.256;2024-03-08T13:06:52;94795.25;;;13.03;48.04
5550;BME280;2798;42.716;23.256;2024-03-08T13:09:19;94803.84;;;13.03;48.43
5550;BME280;2798;42.716;23.256;2024-03-08T13:11:45;94800.13;;;12.96;48.44
5550;BME280;2798;42.716;23.256;2024-03-08T13:14:10;94804.97;;;12.89;49.03
5550;BME280;2798;42.716;23.256;2024-03-08T13:16:35;94798.13;;;12.88;48.43
5550;BME280;2798;42.716;23.256;2024-03-08T13:19:01;94806.97;;;12.85;48.19
5550;BME280;2798;42.716;23.256;2024-03-08T13:21:26;94803.91;;;12.80;48.81
5550;BME280;2798;42.716;23.256;2024-03-08T13:23:51;94799.38;;;12.72;48.29
5550;BME280;2798;42.716;23.256;2024-03-08T13:26:18;94797.66;;;12.61;49.38